createdAt,value
2023-05-20T00:01:41.257Z,79.67
2023-05-20T00:04:44.647Z,78.49
2023-05-20T00:07:47.470Z,78.62
2023-05-20T00:10:50.127Z,78.58
2023-05-20T00:13:52.652Z,78.08
2023-05-20T00:16:55.382Z,77.95
2023-05-20T00:19:57.801Z,78.32
2023-05-20T00:23:00.665Z,77.87
2023-05-20T00:26:03.223Z,78.16
2023-05-20T00:29:05.654Z,78.48
2023-05-20T00:32:08.413Z,78.20
2023-05-20T00:35:11.692Z,78.74
2023-05-20T00:38:14.570Z,78.53
2023-05-20T00:41:17.085Z,78.74
2023-05-20T00:44:19.518Z,78.51
2023-05-20T00:47:26.276Z,77.80
2023-05-20T00:50:28.820Z,78.24
2023-05-20T00:53:31.415Z,77.82
2023-05-20T00:56:33.951Z,78.38
2023-05-20T00:59:36.741Z,77.93
2023-05-20T01:02:39.771Z,79.36
2023-05-20T01:05:42.596Z,78.68
2023-05-20T01:08:48.265Z,78.33
2023-05-20T01:12:04.939Z,78.89
2023-05-20T01:15:12.082Z,78.97
2023-05-20T01:18:21.367Z,79.81
2023-05-20T01:21:23.847Z,80.19
2023-05-20T01:24:26.639Z,80.43
2023-05-20T01:27:30.565Z,81.26
2023-05-20T01:30:36.216Z,80.80
2023-05-20T01:33:39.084Z,80.39
2023-05-20T01:36:41.506Z,80.07
2023-05-20T01:39:44.415Z,79.83
2023-05-20T01:42:53.062Z,80.35
2023-05-20T01:45:56.078Z,81.39
2023-05-20T01:48:58.761Z,81.42
2023-05-20T01:52:01.418Z,82.08
2023-05-20T01:55:05.523Z,82.37
2023-05-20T01:58:08.698Z,82.84
2023-05-20T02:01:12.460Z,82.17
2023-05-20T02:04:19.330Z,82.87
2023-05-20T02:07:22.087Z,82.76
2023-05-20T02:10:24.698Z,82.40
2023-05-20T02:13:27.633Z,82.18
2023-05-20T02:16:30.020Z,82.18
2023-05-20T02:19:32.548Z,82.04
2023-05-20T02:22:35.048Z,82.00
2023-05-20T02:25:39.409Z,82.39
2023-05-20T02:28:46.722Z,82.43
2023-05-20T02:31:49.600Z,82.89
2023-05-20T02:34:52.080Z,82.79
2023-05-20T02:37:54.562Z,82.79
2023-05-20T02:40:57.176Z,82.26
2023-05-20T02:44:00.361Z,81.81
2023-05-20T02:47:04.244Z,81.82
2023-05-20T02:50:08.364Z,81.80
2023-05-20T02:53:11.062Z,81.33
2023-05-20T02:56:13.952Z,80.99
2023-05-20T02:59:17.743Z,81.44
2023-05-20T03:02:20.449Z,82.19
2023-05-20T03:05:23.006Z,82.39
2023-05-20T03:08:25.565Z,81.42
2023-05-20T03:11:28.269Z,80.61
2023-05-20T03:14:31.000Z,80.93
2023-05-20T03:17:33.380Z,80.22
2023-05-20T03:20:38.611Z,79.79
2023-05-20T03:23:42.526Z,79.77
2023-05-20T03:26:46.767Z,79.68
2023-05-20T03:29:49.643Z,79.46
2023-05-20T03:32:53.321Z,78.96
2023-05-20T03:35:55.931Z,78.92
2023-05-20T03:38:58.855Z,79.20
2023-05-20T03:42:01.696Z,78.85
2023-05-20T03:45:07.018Z,78.56
2023-05-20T03:48:16.220Z,77.75
2023-05-20T03:51:19.007Z,77.78
2023-05-20T03:54:23.757Z,77.44
2023-05-20T03:57:29.523Z,77.35
2023-05-20T04:00:32.212Z,77.03
2023-05-20T04:03:34.857Z,76.93
2023-05-20T04:06:37.665Z,77.03
2023-05-20T04:09:41.207Z,76.33
2023-05-20T04:12:43.774Z,75.85
2023-05-20T04:15:47.512Z,75.10
2023-05-20T04:18:50.942Z,74.70
2023-05-20T04:21:54.649Z,74.24
2023-05-20T04:24:59.347Z,74.36
2023-05-20T04:28:02.520Z,74.52
2023-05-20T04:31:05.302Z,73.91
2023-05-20T04:34:10.792Z,74.10
2023-05-20T04:37:13.437Z,73.90
2023-05-20T04:40:17.860Z,73.75
2023-05-20T04:43:20.455Z,74.55
2023-05-20T04:46:22.979Z,74.24
2023-05-20T04:49:26.068Z,73.24
2023-05-20T04:52:28.763Z,73.88
2023-05-20T04:55:32.361Z,73.04
2023-05-20T04:58:35.574Z,72.48
2023-05-20T05:01:38.540Z,72.22
2023-05-20T05:04:41.787Z,71.92
2023-05-20T05:07:46.715Z,72.12
2023-05-20T05:10:49.397Z,70.54
2023-05-20T05:13:52.578Z,69.48
2023-05-20T05:16:58.619Z,69.17
2023-05-20T05:20:01.055Z,68.13
2023-05-20T05:23:07.252Z,67.98
2023-05-20T05:26:13.651Z,68.29
2023-05-20T05:29:16.421Z,66.99
2023-05-20T05:32:19.184Z,66.80
2023-05-20T05:35:21.946Z,67.30
2023-05-20T05:38:25.280Z,66.89
2023-05-20T05:41:27.839Z,66.49
2023-05-20T05:44:30.708Z,65.26
2023-05-20T05:47:33.758Z,65.06
2023-05-20T05:50:36.927Z,64.68
2023-05-20T05:53:40.150Z,64.87
2023-05-20T05:56:42.869Z,64.07
2023-05-20T05:59:46.539Z,64.19
2023-05-20T06:02:49.910Z,64.27
2023-05-20T06:06:06.937Z,63.13
2023-05-20T06:09:10.759Z,63.23
2023-05-20T06:12:14.212Z,62.83
2023-05-20T06:15:17.349Z,63.11
2023-05-20T06:18:20.879Z,63.65
2023-05-20T06:21:26.064Z,62.74
2023-05-20T06:24:29.184Z,62.33
2023-05-20T06:27:31.657Z,64.11
2023-05-20T06:30:34.775Z,61.75
2023-05-20T06:33:37.964Z,61.99
2023-05-20T06:36:44.178Z,61.64
2023-05-20T06:39:47.772Z,61.01
2023-05-20T06:42:50.603Z,61.45
2023-05-20T06:45:54.291Z,62.31
2023-05-20T06:49:10.488Z,59.70
2023-05-20T06:52:14.314Z,60.24
2023-05-20T06:55:17.484Z,60.67
2023-05-20T06:58:20.045Z,59.85
2023-05-20T07:01:23.277Z,59.49
2023-05-20T07:04:26.052Z,59.58
2023-05-20T07:07:28.959Z,59.56
2023-05-20T07:10:32.107Z,58.86
2023-05-20T07:13:35.176Z,59.73
2023-05-20T07:16:37.989Z,58.41
2023-05-20T07:19:43.773Z,57.60
2023-05-20T07:22:48.961Z,57.72
2023-05-20T07:25:57.325Z,57.94
2023-05-20T07:29:00.123Z,56.67
2023-05-20T07:32:04.038Z,55.75
2023-05-20T07:35:07.027Z,54.97
2023-05-20T07:38:09.744Z,55.20
2023-05-20T07:41:12.144Z,54.43
2023-05-20T07:44:15.182Z,54.63
2023-05-20T07:47:22.956Z,53.71
2023-05-20T07:50:25.551Z,55.23
2023-05-20T07:53:28.124Z,53.98
2023-05-20T07:56:32.067Z,53.77
2023-05-20T07:59:35.411Z,53.64
2023-05-20T08:02:39.470Z,53.16
2023-05-20T08:05:42.833Z,51.65
2023-05-20T08:08:45.788Z,52.38
2023-05-20T08:11:55.131Z,51.32
2023-05-20T08:14:57.806Z,52.06
2023-05-20T08:18:00.342Z,50.31
2023-05-20T08:21:02.888Z,50.50
2023-05-20T08:24:05.801Z,50.55
2023-05-20T08:27:08.775Z,50.45
2023-05-20T08:30:11.488Z,48.94
2023-05-20T08:33:14.423Z,49.13
2023-05-20T08:36:17.166Z,49.83
2023-05-20T08:39:19.811Z,49.80
2023-05-20T08:42:23.912Z,48.79
2023-05-20T08:45:28.766Z,49.16
2023-05-20T08:48:37.025Z,48.59
2023-05-20T08:51:39.650Z,47.58
2023-05-20T08:54:46.551Z,46.44
2023-05-20T08:57:54.684Z,46.38
2023-05-20T09:00:58.902Z,48.09
2023-05-20T09:04:01.751Z,46.08
2023-05-20T09:07:05.181Z,46.34
2023-05-20T09:10:08.770Z,45.71
2023-05-20T09:13:11.674Z,45.05
2023-05-20T09:16:14.201Z,44.33
2023-05-20T09:19:17.720Z,46.34
2023-05-20T09:22:27.097Z,44.37
2023-05-20T09:25:29.875Z,44.08
2023-05-20T09:28:32.383Z,43.73
2023-05-20T09:31:35.822Z,45.35
2023-05-20T09:34:38.769Z,42.55
2023-05-20T09:37:43.177Z,42.65
2023-05-20T09:40:45.914Z,41.78
2023-05-20T09:43:48.842Z,42.31
2023-05-20T09:46:53.259Z,42.07
2023-05-20T09:49:56.685Z,38.79
2023-05-20T09:53:03.726Z,40.15
2023-05-20T09:56:06.377Z,39.84
2023-05-20T09:59:08.875Z,37.91
2023-05-20T10:02:11.336Z,39.86
2023-05-20T10:05:33.440Z,37.54
2023-05-20T10:08:56.922Z,39.21
2023-05-20T10:12:19.027Z,36.28
2023-05-20T10:15:30.677Z,36.78
2023-05-20T10:19:05.437Z,35.42
2023-05-20T10:22:09.337Z,34.42
2023-05-20T10:25:26.709Z,31.60
2023-05-20T10:28:31.231Z,31.65
2023-05-20T10:31:35.338Z,32.70
2023-05-20T10:34:50.735Z,31.54
2023-05-20T10:37:54.593Z,32.99
2023-05-20T10:40:57.525Z,31.86
2023-05-20T10:44:04.541Z,30.00
2023-05-20T10:47:24.386Z,32.03
2023-05-20T10:50:36.283Z,29.92
2023-05-20T10:53:40.268Z,30.71
2023-05-20T10:56:52.055Z,30.51
2023-05-20T10:59:54.652Z,28.14
2023-05-20T11:02:57.220Z,28.56
2023-05-20T11:05:59.867Z,28.32
2023-05-20T11:09:06.804Z,28.46
2023-05-20T11:12:09.268Z,26.90
2023-05-20T11:15:13.223Z,25.60
2023-05-20T11:18:17.849Z,26.89
2023-05-20T11:21:21.741Z,24.84
2023-05-20T11:24:26.726Z,27.03
2023-05-20T11:27:29.291Z,27.12
2023-05-20T11:30:32.353Z,26.68
2023-05-20T11:33:35.692Z,24.89
2023-05-20T11:36:44.345Z,26.56
2023-05-20T11:40:10.139Z,25.54
2023-05-20T11:43:13.771Z,25.69
2023-05-20T11:46:16.474Z,26.56
2023-05-20T11:49:19.006Z,25.64
2023-05-20T11:52:21.808Z,25.90
2023-05-20T11:55:24.974Z,25.46
2023-05-20T11:58:31.353Z,25.49
2023-05-20T12:01:43.732Z,26.03
2023-05-20T12:04:46.431Z,26.22
2023-05-20T12:07:49.604Z,24.04
2023-05-20T12:10:52.053Z,23.44
2023-05-20T12:13:54.534Z,22.25
2023-05-20T12:16:57.013Z,23.15
2023-05-20T12:19:59.492Z,23.57
2023-05-20T12:23:02.243Z,23.08
2023-05-20T12:26:05.878Z,23.66
2023-05-20T12:29:08.330Z,23.83
2023-05-20T12:32:11.195Z,22.06
2023-05-20T12:35:13.909Z,22.39
2023-05-20T12:38:16.479Z,23.18
2023-05-20T12:41:18.975Z,21.88
2023-05-20T12:44:21.381Z,22.29
2023-05-20T12:47:24.210Z,20.95
2023-05-20T12:50:27.297Z,21.10
2023-05-20T12:53:30.130Z,23.55
2023-05-20T12:56:32.579Z,22.17
2023-05-20T12:59:41.085Z,22.34
2023-05-20T13:02:43.975Z,21.20
2023-05-20T13:05:47.184Z,21.79
2023-05-20T13:08:49.669Z,23.63
2023-05-20T13:11:52.461Z,21.57
2023-05-20T13:14:55.091Z,23.54
2023-05-20T13:18:00.153Z,21.63
2023-05-20T13:21:02.813Z,22.32
2023-05-20T13:24:05.757Z,23.63
2023-05-20T13:27:08.391Z,23.09
2023-05-20T13:30:11.631Z,25.67
2023-05-20T13:33:14.206Z,27.45
2023-05-20T13:36:17.081Z,25.07
2023-05-20T13:39:21.799Z,23.84
2023-05-20T13:42:24.253Z,24.20
2023-05-20T13:45:27.566Z,24.26
2023-05-20T13:48:30.316Z,24.96
2023-05-20T13:51:32.832Z,23.79
2023-05-20T13:54:37.473Z,24.05
2023-05-20T13:57:40.058Z,24.22
2023-05-20T14:00:42.584Z,25.27
2023-05-20T14:03:45.673Z,23.99
2023-05-20T14:06:48.335Z,24.95
2023-05-20T14:09:51.280Z,26.61
2023-05-20T14:12:54.523Z,25.48
2023-05-20T14:15:57.110Z,25.70
2023-05-20T14:18:59.906Z,24.88
2023-05-20T14:22:03.379Z,24.05
2023-05-20T14:25:06.498Z,22.84
2023-05-20T14:28:09.060Z,23.38
2023-05-20T14:31:11.611Z,23.39
2023-05-20T14:34:14.201Z,24.77
2023-05-20T14:37:17.015Z,23.25
2023-05-20T14:40:19.482Z,24.59
2023-05-20T14:43:22.074Z,22.44
2023-05-20T14:46:24.470Z,23.46
2023-05-20T14:49:27.152Z,24.08
2023-05-20T14:52:29.767Z,23.66
2023-05-20T14:55:32.355Z,23.88
2023-05-20T14:58:35.356Z,24.57
2023-05-20T15:01:37.968Z,24.17
2023-05-20T15:04:41.409Z,25.14
2023-05-20T15:07:44.857Z,25.57
2023-05-20T15:10:48.416Z,25.08
2023-05-20T15:13:52.251Z,26.72
2023-05-20T15:16:54.728Z,28.42
2023-05-20T15:19:57.432Z,29.87
2023-05-20T15:23:01.002Z,31.25
2023-05-20T15:26:06.208Z,29.20
2023-05-20T15:29:08.710Z,29.52
2023-05-20T15:32:11.730Z,29.27
2023-05-20T15:35:14.178Z,31.68
2023-05-20T15:38:17.658Z,29.20
2023-05-20T15:41:21.718Z,29.35
2023-05-20T15:44:24.225Z,32.23
2023-05-20T15:47:26.748Z,30.62
2023-05-20T15:50:30.045Z,30.77
2023-05-20T15:53:33.192Z,32.26
2023-05-20T15:56:35.727Z,32.23
2023-05-20T15:59:45.220Z,31.36
2023-05-20T16:02:47.943Z,32.16
2023-05-20T16:05:50.700Z,34.02
2023-05-20T16:08:53.778Z,34.04
2023-05-20T16:11:56.384Z,35.37
2023-05-20T16:14:58.889Z,34.20
2023-05-20T16:18:01.752Z,34.83
2023-05-20T16:21:07.485Z,34.99
2023-05-20T16:24:10.303Z,34.60
2023-05-20T16:27:13.037Z,35.18
2023-05-20T16:30:15.512Z,35.35
2023-05-20T16:33:21.233Z,34.74
2023-05-20T16:36:23.735Z,35.39
2023-05-20T16:39:26.270Z,35.14
2023-05-20T16:42:30.574Z,36.40
2023-05-20T16:45:33.178Z,36.18
2023-05-20T16:48:36.303Z,36.99
2023-05-20T16:51:38.857Z,37.25
2023-05-20T16:54:41.534Z,37.95
2023-05-20T16:57:44.194Z,37.53
2023-05-20T17:00:46.786Z,38.45
2023-05-20T17:03:49.925Z,38.39
2023-05-20T17:06:55.045Z,39.94
2023-05-20T17:09:57.880Z,39.94
2023-05-20T17:13:00.647Z,40.72
2023-05-20T17:16:03.330Z,40.66
2023-05-20T17:19:09.385Z,42.70
2023-05-20T17:22:11.954Z,41.87
2023-05-20T17:25:14.572Z,41.14
2023-05-20T17:28:17.479Z,41.14
2023-05-20T17:31:20.440Z,42.14
2023-05-20T17:34:24.697Z,41.41
2023-05-20T17:37:27.487Z,41.72
2023-05-20T17:40:30.212Z,42.06
2023-05-20T17:43:32.651Z,42.17
2023-05-20T17:46:35.181Z,42.82
2023-05-20T17:49:37.947Z,43.72
2023-05-20T17:52:40.479Z,43.19
2023-05-20T17:55:47.196Z,43.01
2023-05-20T17:58:49.670Z,42.55
2023-05-20T18:01:53.045Z,43.31
2023-05-20T18:04:55.804Z,43.85
2023-05-20T18:07:58.778Z,44.67
2023-05-20T18:11:01.607Z,44.34
2023-05-20T18:14:04.498Z,44.15
2023-05-20T18:17:06.989Z,44.36
2023-05-20T18:20:10.528Z,45.06
2023-05-20T18:23:13.179Z,45.74
2023-05-20T18:26:16.070Z,46.04
2023-05-20T18:29:18.570Z,46.00
2023-05-20T18:32:28.471Z,45.66
2023-05-20T18:35:30.979Z,46.55
2023-05-20T18:38:33.585Z,46.88
2023-05-20T18:41:46.598Z,47.55
2023-05-20T18:44:50.257Z,46.75
2023-05-20T18:47:54.470Z,48.11
2023-05-20T18:50:57.214Z,46.93
2023-05-20T18:54:02.234Z,47.03
2023-05-20T18:57:05.251Z,47.42
2023-05-20T19:00:12.627Z,48.02
2023-05-20T19:03:15.906Z,48.56
2023-05-20T19:06:18.832Z,48.38
2023-05-20T19:09:21.791Z,49.71
2023-05-20T19:12:24.822Z,48.67
2023-05-20T19:15:27.529Z,49.39
2023-05-20T19:18:32.329Z,49.98
2023-05-20T19:21:34.829Z,49.58
2023-05-20T19:24:37.697Z,49.90
2023-05-20T19:27:40.443Z,49.56
2023-05-20T19:30:42.991Z,50.14
2023-05-20T19:33:45.490Z,50.41
2023-05-20T19:36:47.890Z,51.07
2023-05-20T19:39:50.786Z,50.73
2023-05-20T19:42:53.318Z,51.14
2023-05-20T19:45:55.948Z,51.22
2023-05-20T19:48:58.515Z,51.63
2023-05-20T19:52:01.392Z,51.72
2023-05-20T19:55:04.272Z,52.40
2023-05-20T19:58:06.818Z,52.22
2023-05-20T20:01:10.784Z,52.09
2023-05-20T20:04:13.877Z,52.73
2023-05-20T20:07:16.679Z,52.80
2023-05-20T20:10:19.488Z,52.63
2023-05-20T20:13:21.998Z,52.27
2023-05-20T20:16:27.003Z,51.89
2023-05-20T20:19:29.760Z,51.97
2023-05-20T20:22:32.620Z,51.78
2023-05-20T20:25:38.843Z,52.29
2023-05-20T20:28:41.519Z,53.01
2023-05-20T20:31:44.009Z,53.14
2023-05-20T20:34:46.453Z,52.75
2023-05-20T20:37:50.752Z,53.51
2023-05-20T20:40:57.192Z,53.98
2023-05-20T20:44:00.282Z,54.32
2023-05-20T20:47:04.544Z,54.34
2023-05-20T20:50:08.137Z,54.79
2023-05-20T20:53:11.121Z,55.07
2023-05-20T20:56:13.913Z,55.99
2023-05-20T20:59:16.777Z,56.20
2023-05-20T21:02:19.417Z,56.79
2023-05-20T21:05:26.655Z,57.54
2023-05-20T21:08:30.426Z,57.89
2023-05-20T21:11:33.370Z,56.83
2023-05-20T21:14:36.744Z,57.91
2023-05-20T21:17:39.331Z,57.39
2023-05-20T21:20:41.839Z,57.28
2023-05-20T21:23:44.900Z,57.78
2023-05-20T21:26:47.602Z,58.09
2023-05-20T21:29:50.938Z,57.99
2023-05-20T21:32:53.436Z,57.71
2023-05-20T21:35:56.363Z,58.05
2023-05-20T21:38:58.842Z,57.85
2023-05-20T21:42:01.442Z,57.61
2023-05-20T21:45:10.710Z,58.19
2023-05-20T21:48:13.262Z,58.01
2023-05-20T21:51:16.375Z,58.22
2023-05-20T21:54:19.459Z,58.71
2023-05-20T21:57:22.041Z,58.83
2023-05-20T22:00:24.673Z,59.40
2023-05-20T22:03:27.159Z,59.80
2023-05-20T22:06:29.638Z,59.42
2023-05-20T22:09:32.115Z,59.53
2023-05-20T22:12:35.897Z,59.28
2023-05-20T22:15:38.357Z,60.36
2023-05-20T22:18:40.818Z,59.86
2023-05-20T22:21:50.085Z,59.98
2023-05-20T22:24:53.457Z,60.53
2023-05-20T22:27:55.831Z,60.54
2023-05-20T22:30:58.871Z,60.19
2023-05-20T22:34:02.343Z,60.64
2023-05-20T22:37:07.066Z,60.68
2023-05-20T22:40:11.336Z,60.61
2023-05-20T22:43:16.621Z,60.64
2023-05-20T22:46:19.293Z,61.19
2023-05-20T22:49:23.921Z,60.88
2023-05-20T22:52:26.384Z,61.54
2023-05-20T22:55:29.331Z,61.46
2023-05-20T22:58:39.360Z,62.27
2023-05-20T23:01:42.506Z,62.10
2023-05-20T23:04:45.146Z,62.68
2023-05-20T23:07:47.724Z,62.44
2023-05-20T23:10:50.461Z,63.01
2023-05-20T23:13:53.469Z,62.32
2023-05-20T23:16:56.153Z,62.98
2023-05-20T23:19:58.602Z,62.62
2023-05-20T23:23:08.308Z,62.57
2023-05-20T23:26:13.570Z,62.41
2023-05-20T23:29:16.392Z,62.92
2023-05-20T23:32:18.951Z,62.62
2023-05-20T23:35:21.516Z,63.04
2023-05-20T23:38:24.382Z,63.45
2023-05-20T23:41:27.112Z,63.74
2023-05-20T23:44:33.480Z,64.02
2023-05-20T23:47:36.702Z,63.91
2023-05-20T23:50:40.665Z,63.95
2023-05-20T23:53:43.844Z,64.04
2023-05-20T23:56:46.976Z,64.25
2023-05-20T23:59:50.023Z,64.24
